MED170 EHAM-LIRP
Flight info
| Callsign | MED170 |
|---|---|
| Flight time | 1h 44m |
| Altitude | 35000 |
| Route | EDUPO Z739 MISGO DCT ASBON DCT TUSUK DCT ULNOK L607 ABUKA DCT KRH DCT NATOR DCT TRA DCT RIPUS DCT GERSA DCT SOSON DCT ODINA DCT SRN DCT ROBAS DCT OSBUL Y651 MIVKI |
| Aircraft | B738/M-SDE2E3FGHIRWXY/LB1 |
Departure
| Time | 2026-05-08 10:24 |
|---|---|
| Airport | Amsterdam Airport Schiphol (EHAM) |
Arrival
| Time | 2026-05-08 12:08 |
|---|---|
| Airport | Pisa International Airport (LIRP) |
| Time | Latitude | Longitude | Altitude | Speed | Heading |
|---|---|---|---|---|---|
| 2026-05-08 10:17 | 52.32160 | 4.74396 | -2 ft | 2 kts | 131° |
| 2026-05-08 10:17 | 52.32174 | 4.74381 | -2 ft | 2 kts | 163° |
| 2026-05-08 10:17 | 52.32190 | 4.74376 | -2 ft | 2 kts | 176° |
| 2026-05-08 10:17 | 52.32200 | 4.74375 | -2 ft | 1 kts | 183° |
| 2026-05-08 10:18 | 52.32201 | 4.74375 | -2 ft | 0 kts | 183° |
| 2026-05-08 10:18 | 52.32181 | 4.74368 | -2 ft | 19 kts | 194° |
| 2026-05-08 10:19 | 52.32038 | 4.74340 | -2 ft | 13 kts | 185° |
| 2026-05-08 10:19 | 52.31947 | 4.74333 | -2 ft | 13 kts | 181° |
| 2026-05-08 10:19 | 52.31858 | 4.74329 | -2 ft | 13 kts | 181° |
| 2026-05-08 10:20 | 52.31735 | 4.74315 | -2 ft | 1 kts | 183° |
| 2026-05-08 10:20 | 52.31715 | 4.74313 | -2 ft | 10 kts | 183° |
| 2026-05-08 10:20 | 52.31623 | 4.74305 | -2 ft | 14 kts | 183° |
| 2026-05-08 10:20 | 52.31531 | 4.74296 | -2 ft | 13 kts | 180° |
| 2026-05-08 10:21 | 52.31474 | 4.74382 | -2 ft | 13 kts | 87° |
| 2026-05-08 10:21 | 52.31481 | 4.74524 | -2 ft | 12 kts | 86° |
| 2026-05-08 10:21 | 52.31489 | 4.74646 | -2 ft | 8 kts | 68° |
| 2026-05-08 10:21 | 52.31507 | 4.74668 | -2 ft | 5 kts | 9° |
| 2026-05-08 10:22 | 52.31555 | 4.74663 | -2 ft | 0 kts | 356° |
| 2026-05-08 10:23 | 52.31589 | 4.74659 | -2 ft | 11 kts | 358° |
| 2026-05-08 10:23 | 52.31656 | 4.74695 | -1 ft | 10 kts | 49° |
| 2026-05-08 10:23 | 52.31667 | 4.74763 | -2 ft | 0 kts | 87° |
| 2026-05-08 10:23 | 52.31667 | 4.74764 | -2 ft | 3 kts | 87° |
| 2026-05-08 10:24 | 52.31680 | 4.75194 | -3 ft | 81 kts | 86° |
| 2026-05-08 10:24 | 52.31724 | 4.76553 | 2 ft | 156 kts | 87° |
| 2026-05-08 10:24 | 52.31779 | 4.78512 | 683 ft | 170 kts | 86° |
| 2026-05-08 10:24 | 52.31877 | 4.80391 | 1782 ft | 178 kts | 86° |
| 2026-05-08 10:25 | 52.31936 | 4.82529 | 2393 ft | 200 kts | 87° |
| 2026-05-08 10:25 | 52.31997 | 4.84967 | 2656 ft | 227 kts | 87° |
| 2026-05-08 10:25 | 52.31856 | 4.87602 | 3156 ft | 246 kts | 106° |
| 2026-05-08 10:25 | 52.31172 | 4.90263 | 3836 ft | 258 kts | 114° |
| 2026-05-08 10:26 | 52.30436 | 4.92956 | 4704 ft | 263 kts | 113° |
| 2026-05-08 10:26 | 52.29699 | 4.95715 | 5611 ft | 266 kts | 112° |
| 2026-05-08 10:26 | 52.29073 | 4.98579 | 6507 ft | 269 kts | 106° |
| 2026-05-08 10:26 | 52.28562 | 5.01539 | 7325 ft | 273 kts | 105° |
| 2026-05-08 10:27 | 52.28062 | 5.04558 | 8146 ft | 278 kts | 105° |
| 2026-05-08 10:27 | 52.27548 | 5.07631 | 8980 ft | 282 kts | 106° |
| 2026-05-08 10:27 | 52.27022 | 5.10730 | 9805 ft | 286 kts | 107° |
| 2026-05-08 10:27 | 52.26478 | 5.13894 | 10505 ft | 294 kts | 107° |
| 2026-05-08 10:28 | 52.25895 | 5.17239 | 10735 ft | 319 kts | 107° |
| 2026-05-08 10:28 | 52.25261 | 5.20848 | 10935 ft | 343 kts | 107° |
| 2026-05-08 10:28 | 52.24569 | 5.24707 | 11108 ft | 365 kts | 109° |
| 2026-05-08 10:28 | 52.23359 | 5.28413 | 11518 ft | 375 kts | 127° |
| 2026-05-08 10:29 | 52.21806 | 5.31859 | 12187 ft | 380 kts | 127° |
| 2026-05-08 10:29 | 52.20263 | 5.35318 | 12888 ft | 384 kts | 127° |
| 2026-05-08 10:29 | 52.18707 | 5.38848 | 13568 ft | 388 kts | 126° |
| 2026-05-08 10:29 | 52.17150 | 5.42405 | 14202 ft | 393 kts | 126° |
| 2026-05-08 10:30 | 52.15537 | 5.46106 | 14819 ft | 397 kts | 126° |
| 2026-05-08 10:30 | 52.13934 | 5.49786 | 15432 ft | 401 kts | 126° |
| 2026-05-08 10:30 | 52.12314 | 5.53496 | 16045 ft | 404 kts | 126° |
| 2026-05-08 10:30 | 52.10696 | 5.57193 | 16643 ft | 408 kts | 126° |
| 2026-05-08 10:31 | 52.09018 | 5.61020 | 17234 ft | 412 kts | 126° |
| 2026-05-08 10:31 | 52.07368 | 5.64778 | 17808 ft | 416 kts | 126° |
| 2026-05-08 10:31 | 52.05657 | 5.68604 | 18376 ft | 420 kts | 129° |
| 2026-05-08 10:31 | 52.03778 | 5.72259 | 18890 ft | 423 kts | 132° |
| 2026-05-08 10:32 | 52.01813 | 5.75825 | 19419 ft | 425 kts | 133° |
| 2026-05-08 10:32 | 51.99839 | 5.79422 | 19937 ft | 428 kts | 132° |
| 2026-05-08 10:32 | 51.97873 | 5.83066 | 20440 ft | 431 kts | 132° |
| 2026-05-08 10:32 | 51.95902 | 5.86750 | 20932 ft | 433 kts | 132° |
| 2026-05-08 10:33 | 51.93917 | 5.90451 | 21417 ft | 436 kts | 132° |
| 2026-05-08 10:33 | 51.91923 | 5.94164 | 21876 ft | 439 kts | 132° |
| 2026-05-08 10:33 | 51.89908 | 5.97910 | 22339 ft | 442 kts | 132° |
| 2026-05-08 10:33 | 51.87883 | 6.01668 | 22782 ft | 445 kts | 132° |
| 2026-05-08 10:34 | 51.85839 | 6.05454 | 23231 ft | 448 kts | 132° |
| 2026-05-08 10:34 | 51.83780 | 6.09245 | 23657 ft | 450 kts | 132° |
| 2026-05-08 10:34 | 51.81697 | 6.13055 | 24018 ft | 453 kts | 133° |
| 2026-05-08 10:34 | 51.79607 | 6.16873 | 24389 ft | 455 kts | 133° |
| 2026-05-08 10:35 | 51.77501 | 6.20716 | 24739 ft | 457 kts | 133° |
| 2026-05-08 10:35 | 51.75395 | 6.24559 | 25083 ft | 459 kts | 132° |
| 2026-05-08 10:35 | 51.73272 | 6.28434 | 25416 ft | 461 kts | 132° |
| 2026-05-08 10:35 | 51.71146 | 6.32314 | 25740 ft | 464 kts | 132° |
| 2026-05-08 10:36 | 51.69003 | 6.36221 | 26068 ft | 466 kts | 133° |
| 2026-05-08 10:36 | 51.66847 | 6.40146 | 26379 ft | 468 kts | 133° |
| 2026-05-08 10:36 | 51.64686 | 6.44071 | 26679 ft | 470 kts | 133° |
| 2026-05-08 10:36 | 51.62509 | 6.48018 | 26981 ft | 472 kts | 133° |
| 2026-05-08 10:37 | 51.60329 | 6.51961 | 27288 ft | 473 kts | 133° |
| 2026-05-08 10:37 | 51.58133 | 6.55929 | 27578 ft | 475 kts | 133° |
| 2026-05-08 10:37 | 51.55931 | 6.59904 | 27967 ft | 474 kts | 133° |
| 2026-05-08 10:37 | 51.53740 | 6.63853 | 28439 ft | 472 kts | 133° |
| 2026-05-08 10:38 | 51.51563 | 6.67773 | 28931 ft | 470 kts | 133° |
| 2026-05-08 10:38 | 51.49395 | 6.71671 | 29351 ft | 469 kts | 133° |
| 2026-05-08 10:38 | 51.48151 | 6.73904 | 29572 ft | 469 kts | 133° |
| 2026-05-08 10:38 | 51.46073 | 6.77632 | 29952 ft | 468 kts | 133° |
| 2026-05-08 10:39 | 51.43903 | 6.81518 | 30353 ft | 467 kts | 133° |
| 2026-05-08 10:39 | 51.41728 | 6.85374 | 30707 ft | 465 kts | 135° |
| 2026-05-08 10:39 | 51.39344 | 6.88855 | 30991 ft | 464 kts | 144° |
| 2026-05-08 10:39 | 51.36700 | 6.91684 | 31288 ft | 463 kts | 149° |
| 2026-05-08 10:40 | 51.33960 | 6.94390 | 31629 ft | 462 kts | 149° |
| 2026-05-08 10:40 | 51.31179 | 6.97106 | 31948 ft | 462 kts | 149° |
| 2026-05-08 10:40 | 51.28703 | 6.99532 | 32213 ft | 462 kts | 149° |
| 2026-05-08 10:40 | 51.25959 | 7.02241 | 32517 ft | 462 kts | 149° |
| 2026-05-08 10:41 | 51.23233 | 7.04950 | 32838 ft | 461 kts | 149° |
| 2026-05-08 10:41 | 51.20512 | 7.07665 | 33137 ft | 461 kts | 149° |
| 2026-05-08 10:41 | 51.17795 | 7.10379 | 33417 ft | 461 kts | 149° |
| 2026-05-08 10:41 | 51.15074 | 7.13097 | 33710 ft | 461 kts | 149° |
| 2026-05-08 10:42 | 51.12360 | 7.15804 | 33997 ft | 461 kts | 149° |
| 2026-05-08 10:42 | 51.09643 | 7.18509 | 34222 ft | 461 kts | 149° |
| 2026-05-08 10:42 | 51.06919 | 7.21218 | 34452 ft | 461 kts | 149° |
| 2026-05-08 10:42 | 51.04202 | 7.23914 | 34674 ft | 461 kts | 149° |
| 2026-05-08 10:43 | 51.01486 | 7.26606 | 34874 ft | 461 kts | 149° |
| 2026-05-08 10:43 | 50.98760 | 7.29303 | 35078 ft | 461 kts | 149° |
| 2026-05-08 10:43 | 50.96178 | 7.31854 | 35117 ft | 464 kts | 149° |
| 2026-05-08 10:44 | 50.90697 | 7.37259 | 35126 ft | 463 kts | 149° |
| 2026-05-08 10:44 | 50.85242 | 7.42625 | 35122 ft | 460 kts | 149° |
| 2026-05-08 10:45 | 50.79818 | 7.47945 | 35124 ft | 458 kts | 149° |
| 2026-05-08 10:45 | 50.74411 | 7.53235 | 35121 ft | 457 kts | 149° |
| 2026-05-08 10:46 | 50.69098 | 7.58522 | 35114 ft | 457 kts | 148° |
| 2026-05-08 10:46 | 50.63797 | 7.64044 | 35116 ft | 458 kts | 148° |
| 2026-05-08 10:47 | 50.58477 | 7.69592 | 35119 ft | 459 kts | 148° |
| 2026-05-08 10:47 | 50.54001 | 7.74223 | 35113 ft | 461 kts | 148° |
| 2026-05-08 10:48 | 50.48658 | 7.79719 | 35122 ft | 462 kts | 148° |
| 2026-05-08 10:48 | 50.43268 | 7.85243 | 35120 ft | 464 kts | 148° |
| 2026-05-08 10:49 | 50.37856 | 7.90776 | 35121 ft | 465 kts | 148° |
| 2026-05-08 10:49 | 50.32435 | 7.96304 | 35122 ft | 465 kts | 148° |
| 2026-05-08 10:50 | 50.27132 | 8.01698 | 35123 ft | 465 kts | 148° |
| 2026-05-08 10:50 | 50.21705 | 8.07203 | 35124 ft | 465 kts | 148° |
| 2026-05-08 10:51 | 50.16277 | 8.12696 | 35129 ft | 465 kts | 148° |
| 2026-05-08 10:51 | 50.10827 | 8.18099 | 35126 ft | 464 kts | 150° |
| 2026-05-08 10:52 | 50.05525 | 8.22968 | 35131 ft | 463 kts | 151° |
| 2026-05-08 10:52 | 49.99992 | 8.28011 | 35127 ft | 463 kts | 151° |
| 2026-05-08 10:53 | 49.94449 | 8.33114 | 35128 ft | 463 kts | 150° |
| 2026-05-08 10:53 | 49.88912 | 8.38216 | 35125 ft | 463 kts | 150° |
| 2026-05-08 10:54 | 49.83898 | 8.43203 | 35109 ft | 465 kts | 141° |
| 2026-05-08 10:54 | 49.79510 | 8.49610 | 35117 ft | 465 kts | 137° |
| 2026-05-08 10:55 | 49.74944 | 8.56332 | 35113 ft | 464 kts | 141° |
| 2026-05-08 10:55 | 49.72356 | 8.59151 | 35112 ft | 462 kts | 152° |
| 2026-05-08 10:55 | 49.69437 | 8.61270 | 35119 ft | 460 kts | 162° |
| 2026-05-08 10:56 | 49.63280 | 8.63443 | 35128 ft | 457 kts | 172° |
| 2026-05-08 10:56 | 49.57009 | 8.65011 | 35123 ft | 458 kts | 172° |
| 2026-05-08 10:57 | 49.50726 | 8.66722 | 35131 ft | 459 kts | 171° |
| 2026-05-08 10:57 | 49.41275 | 8.67043 | 35140 ft | 455 kts | 189° |
| 2026-05-08 10:58 | 49.35004 | 8.65655 | 35118 ft | 456 kts | 190° |
| 2026-05-08 10:58 | 49.28713 | 8.64304 | 35119 ft | 456 kts | 189° |
| 2026-05-08 10:59 | 49.22424 | 8.63024 | 35107 ft | 456 kts | 189° |
| 2026-05-08 10:59 | 49.16131 | 8.61764 | 35103 ft | 456 kts | 189° |
| 2026-05-08 11:00 | 49.09828 | 8.60504 | 35088 ft | 456 kts | 189° |
| 2026-05-08 11:00 | 49.03534 | 8.59245 | 35090 ft | 456 kts | 189° |
| 2026-05-08 11:01 | 48.97255 | 8.57848 | 35082 ft | 455 kts | 193° |
| 2026-05-08 11:01 | 48.91063 | 8.55855 | 35086 ft | 455 kts | 194° |
| 2026-05-08 11:02 | 48.81832 | 8.52762 | 35079 ft | 455 kts | 194° |
| 2026-05-08 11:03 | 48.76116 | 8.50902 | 35078 ft | 455 kts | 194° |
| 2026-05-08 11:03 | 48.70272 | 8.49023 | 35073 ft | 455 kts | 194° |
| 2026-05-08 11:04 | 48.66244 | 8.47732 | 35079 ft | 455 kts | 194° |
| 2026-05-08 11:04 | 48.60271 | 8.45821 | 35070 ft | 455 kts | 194° |
| 2026-05-08 11:05 | 48.54129 | 8.43860 | 35074 ft | 454 kts | 194° |
| 2026-05-08 11:05 | 48.48329 | 8.42011 | 35069 ft | 455 kts | 194° |
| 2026-05-08 11:06 | 48.42267 | 8.40084 | 35065 ft | 455 kts | 194° |
| 2026-05-08 11:06 | 48.36178 | 8.38153 | 35069 ft | 456 kts | 194° |
| 2026-05-08 11:07 | 48.29966 | 8.36188 | 35054 ft | 456 kts | 194° |
| 2026-05-08 11:07 | 48.23817 | 8.34246 | 35051 ft | 456 kts | 194° |
| 2026-05-08 11:08 | 48.17633 | 8.32608 | 35045 ft | 458 kts | 185° |
| 2026-05-08 11:08 | 48.11443 | 8.33236 | 35060 ft | 460 kts | 173° |
| 2026-05-08 11:09 | 48.05927 | 8.34677 | 35046 ft | 461 kts | 172° |
| 2026-05-08 11:09 | 47.99688 | 8.36292 | 35045 ft | 460 kts | 173° |
| 2026-05-08 11:10 | 47.93770 | 8.37749 | 35046 ft | 460 kts | 173° |
| 2026-05-08 11:10 | 47.87500 | 8.39259 | 35056 ft | 459 kts | 173° |
| 2026-05-08 11:11 | 47.81488 | 8.40703 | 35050 ft | 459 kts | 173° |
| 2026-05-08 11:11 | 47.75295 | 8.42190 | 35051 ft | 459 kts | 173° |
| 2026-05-08 11:12 | 47.69157 | 8.43659 | 35063 ft | 459 kts | 174° |
| 2026-05-08 11:12 | 47.62930 | 8.44731 | 35069 ft | 457 kts | 177° |
| 2026-05-08 11:13 | 47.56725 | 8.45560 | 35068 ft | 458 kts | 177° |
| 2026-05-08 11:13 | 47.50517 | 8.46421 | 35070 ft | 458 kts | 177° |
| 2026-05-08 11:14 | 47.44208 | 8.47339 | 35076 ft | 458 kts | 177° |
| 2026-05-08 11:14 | 47.37866 | 8.48269 | 35073 ft | 458 kts | 177° |
| 2026-05-08 11:15 | 47.31546 | 8.49193 | 35078 ft | 458 kts | 177° |
| 2026-05-08 11:15 | 47.25263 | 8.50107 | 35056 ft | 458 kts | 177° |
| 2026-05-08 11:16 | 47.18926 | 8.51026 | 35046 ft | 458 kts | 177° |
| 2026-05-08 11:16 | 47.12597 | 8.51943 | 35050 ft | 458 kts | 177° |
| 2026-05-08 11:17 | 47.06719 | 8.52793 | 35046 ft | 457 kts | 177° |
| 2026-05-08 11:17 | 47.00380 | 8.53708 | 35045 ft | 456 kts | 177° |
| 2026-05-08 11:18 | 46.94092 | 8.54615 | 35045 ft | 456 kts | 178° |
| 2026-05-08 11:18 | 46.87791 | 8.55523 | 35042 ft | 454 kts | 178° |
| 2026-05-08 11:19 | 46.81489 | 8.56427 | 35022 ft | 456 kts | 178° |
| 2026-05-08 11:19 | 46.75893 | 8.57230 | 35056 ft | 455 kts | 178° |
| 2026-05-08 11:20 | 46.69596 | 8.58131 | 35048 ft | 455 kts | 178° |
| 2026-05-08 11:20 | 46.63317 | 8.59026 | 34896 ft | 447 kts | 178° |
| 2026-05-08 11:20 | 46.60275 | 8.59465 | 34941 ft | 434 kts | 178° |
| 2026-05-08 11:21 | 46.57333 | 8.59887 | 34998 ft | 429 kts | 178° |
| 2026-05-08 11:21 | 46.51411 | 8.60725 | 35052 ft | 430 kts | 179° |
| 2026-05-08 11:22 | 46.45449 | 8.61563 | 35042 ft | 430 kts | 178° |
| 2026-05-08 11:22 | 46.39485 | 8.62407 | 35056 ft | 432 kts | 178° |
| 2026-05-08 11:23 | 46.35874 | 8.62917 | 35072 ft | 433 kts | 178° |
| 2026-05-08 11:23 | 46.29903 | 8.63762 | 35080 ft | 435 kts | 178° |
| 2026-05-08 11:24 | 46.23943 | 8.64601 | 35075 ft | 435 kts | 178° |
| 2026-05-08 11:24 | 46.17891 | 8.65450 | 35080 ft | 436 kts | 178° |
| 2026-05-08 11:25 | 46.11976 | 8.66494 | 35064 ft | 440 kts | 171° |
| 2026-05-08 11:25 | 46.06244 | 8.69584 | 35074 ft | 448 kts | 156° |
| 2026-05-08 11:26 | 46.00783 | 8.73939 | 35077 ft | 448 kts | 155° |
| 2026-05-08 11:26 | 45.95344 | 8.78286 | 35072 ft | 447 kts | 156° |
| 2026-05-08 11:27 | 45.89892 | 8.82568 | 35084 ft | 446 kts | 156° |
| 2026-05-08 11:27 | 45.84438 | 8.86818 | 35059 ft | 445 kts | 156° |
| 2026-05-08 11:28 | 45.79008 | 8.91038 | 35071 ft | 444 kts | 156° |
| 2026-05-08 11:28 | 45.73587 | 8.95245 | 35072 ft | 442 kts | 156° |
| 2026-05-08 11:29 | 45.68257 | 8.99373 | 35066 ft | 441 kts | 156° |
| 2026-05-08 11:29 | 45.63200 | 9.04311 | 35069 ft | 449 kts | 142° |
| 2026-05-08 11:30 | 45.58982 | 9.10842 | 35068 ft | 452 kts | 136° |
| 2026-05-08 11:30 | 45.54810 | 9.17531 | 35068 ft | 451 kts | 137° |
| 2026-05-08 11:31 | 45.50613 | 9.24167 | 35070 ft | 450 kts | 137° |
| 2026-05-08 11:31 | 45.46390 | 9.30774 | 35075 ft | 450 kts | 137° |
| 2026-05-08 11:32 | 45.42205 | 9.37296 | 35072 ft | 450 kts | 137° |
| 2026-05-08 11:32 | 45.37940 | 9.43929 | 35073 ft | 450 kts | 137° |
| 2026-05-08 11:33 | 45.33721 | 9.50477 | 35072 ft | 451 kts | 137° |
| 2026-05-08 11:33 | 45.29485 | 9.57038 | 35067 ft | 451 kts | 137° |
| 2026-05-08 11:34 | 45.25239 | 9.63600 | 35059 ft | 451 kts | 137° |
| 2026-05-08 11:34 | 45.20981 | 9.70165 | 35059 ft | 452 kts | 137° |
| 2026-05-08 11:35 | 45.16724 | 9.76710 | 35058 ft | 452 kts | 137° |
| 2026-05-08 11:35 | 45.12461 | 9.83254 | 35057 ft | 452 kts | 137° |
| 2026-05-08 11:36 | 45.08221 | 9.89750 | 35054 ft | 452 kts | 137° |
| 2026-05-08 11:36 | 45.03950 | 9.96279 | 35055 ft | 452 kts | 137° |
| 2026-05-08 11:37 | 44.99681 | 10.02791 | 35059 ft | 452 kts | 137° |
| 2026-05-08 11:37 | 44.96101 | 10.08240 | 35072 ft | 451 kts | 138° |
| 2026-05-08 11:38 | 44.91832 | 10.14724 | 35088 ft | 451 kts | 138° |
| 2026-05-08 11:38 | 44.87565 | 10.21192 | 35077 ft | 450 kts | 138° |
| 2026-05-08 11:39 | 44.82737 | 10.26313 | 35087 ft | 431 kts | 165° |
| 2026-05-08 11:39 | 44.79840 | 10.27263 | 35079 ft | 424 kts | 178° |
| 2026-05-08 11:39 | 44.76994 | 10.27294 | 35072 ft | 419 kts | 190° |
| 2026-05-08 11:40 | 44.71372 | 10.25267 | 34840 ft | 422 kts | 198° |
| 2026-05-08 11:40 | 44.68537 | 10.24105 | 34343 ft | 423 kts | 197° |
| 2026-05-08 11:40 | 44.65717 | 10.22968 | 33561 ft | 422 kts | 197° |
| 2026-05-08 11:40 | 44.62893 | 10.21855 | 32827 ft | 422 kts | 197° |
| 2026-05-08 11:41 | 44.60060 | 10.20759 | 32065 ft | 423 kts | 197° |
| 2026-05-08 11:41 | 44.57222 | 10.19670 | 31302 ft | 424 kts | 197° |
| 2026-05-08 11:41 | 44.54367 | 10.18580 | 30524 ft | 426 kts | 197° |
| 2026-05-08 11:41 | 44.51503 | 10.17485 | 29645 ft | 428 kts | 196° |
| 2026-05-08 11:42 | 44.48623 | 10.16385 | 28706 ft | 430 kts | 196° |
| 2026-05-08 11:42 | 44.45723 | 10.15312 | 27661 ft | 434 kts | 195° |
| 2026-05-08 11:42 | 44.42786 | 10.14271 | 26807 ft | 434 kts | 195° |
| 2026-05-08 11:42 | 44.39871 | 10.13253 | 26159 ft | 430 kts | 195° |
| 2026-05-08 11:43 | 44.36983 | 10.12244 | 25497 ft | 426 kts | 195° |
| 2026-05-08 11:43 | 44.34128 | 10.11241 | 24850 ft | 422 kts | 196° |
| 2026-05-08 11:43 | 44.31287 | 10.10238 | 24214 ft | 419 kts | 196° |
| 2026-05-08 11:43 | 44.28467 | 10.09242 | 23555 ft | 417 kts | 196° |
| 2026-05-08 11:44 | 44.25667 | 10.08253 | 22811 ft | 414 kts | 196° |
| 2026-05-08 11:44 | 44.22844 | 10.07491 | 22115 ft | 414 kts | 185° |
| 2026-05-08 11:44 | 44.19976 | 10.07802 | 21386 ft | 417 kts | 169° |
| 2026-05-08 11:44 | 44.17179 | 10.08821 | 20743 ft | 414 kts | 166° |
| 2026-05-08 11:45 | 44.14410 | 10.09881 | 20088 ft | 412 kts | 166° |
| 2026-05-08 11:45 | 44.11646 | 10.10909 | 19471 ft | 409 kts | 167° |
| 2026-05-08 11:45 | 44.08893 | 10.11897 | 18850 ft | 407 kts | 167° |
| 2026-05-08 11:45 | 44.06237 | 10.12835 | 18242 ft | 406 kts | 166° |
| 2026-05-08 11:46 | 44.03509 | 10.13818 | 17480 ft | 405 kts | 166° |
| 2026-05-08 11:46 | 44.00798 | 10.14818 | 16834 ft | 402 kts | 166° |
| 2026-05-08 11:46 | 43.98079 | 10.15825 | 16196 ft | 398 kts | 166° |
| 2026-05-08 11:46 | 43.95421 | 10.16804 | 15596 ft | 395 kts | 166° |
| 2026-05-08 11:47 | 43.92757 | 10.17425 | 14978 ft | 391 kts | 181° |
| 2026-05-08 11:47 | 43.90095 | 10.16772 | 14415 ft | 386 kts | 200° |
| 2026-05-08 11:47 | 43.87734 | 10.15091 | 13838 ft | 382 kts | 217° |
| 2026-05-08 11:47 | 43.85819 | 10.12601 | 13206 ft | 378 kts | 228° |
| 2026-05-08 11:48 | 43.84091 | 10.09900 | 12591 ft | 376 kts | 229° |
| 2026-05-08 11:48 | 43.82580 | 10.07004 | 12335 ft | 364 kts | 238° |
| 2026-05-08 11:48 | 43.81309 | 10.04046 | 12185 ft | 351 kts | 240° |
| 2026-05-08 11:48 | 43.80085 | 10.01186 | 12018 ft | 339 kts | 239° |
| 2026-05-08 11:49 | 43.78780 | 9.98535 | 11817 ft | 330 kts | 226° |
| 2026-05-08 11:49 | 43.77022 | 9.96621 | 11773 ft | 316 kts | 215° |
| 2026-05-08 11:49 | 43.75278 | 9.94898 | 11618 ft | 307 kts | 216° |
| 2026-05-08 11:49 | 43.73578 | 9.93189 | 11499 ft | 298 kts | 216° |
| 2026-05-08 11:50 | 43.72025 | 9.91614 | 11323 ft | 292 kts | 216° |
| 2026-05-08 11:50 | 43.70393 | 9.89954 | 11018 ft | 291 kts | 216° |
| 2026-05-08 11:50 | 43.68746 | 9.88338 | 10787 ft | 286 kts | 208° |
| 2026-05-08 11:50 | 43.66885 | 9.87575 | 10663 ft | 276 kts | 181° |
| 2026-05-08 11:51 | 43.65029 | 9.88002 | 10442 ft | 271 kts | 156° |
| 2026-05-08 11:51 | 43.63470 | 9.89346 | 10338 ft | 260 kts | 135° |
| 2026-05-08 11:51 | 43.62326 | 9.91220 | 10234 ft | 251 kts | 126° |
| 2026-05-08 11:51 | 43.61353 | 9.93180 | 10106 ft | 244 kts | 113° |
| 2026-05-08 11:52 | 43.61058 | 9.95405 | 10000 ft | 235 kts | 83° |
| 2026-05-08 11:52 | 43.61544 | 9.97542 | 9903 ft | 238 kts | 59° |
| 2026-05-08 11:52 | 43.62653 | 9.99285 | 9802 ft | 248 kts | 40° |
| 2026-05-08 11:52 | 43.64036 | 10.00734 | 9650 ft | 251 kts | 36° |
| 2026-05-08 11:53 | 43.65383 | 10.02069 | 9519 ft | 253 kts | 36° |
| 2026-05-08 11:53 | 43.66810 | 10.03484 | 9376 ft | 254 kts | 36° |
| 2026-05-08 11:53 | 43.68241 | 10.04919 | 9242 ft | 254 kts | 37° |
| 2026-05-08 11:53 | 43.69642 | 10.06341 | 9099 ft | 251 kts | 37° |
| 2026-05-08 11:54 | 43.70966 | 10.07890 | 8934 ft | 247 kts | 53° |
| 2026-05-08 11:54 | 43.71632 | 10.10006 | 8831 ft | 240 kts | 82° |
| 2026-05-08 11:54 | 43.71518 | 10.12277 | 8719 ft | 240 kts | 107° |
| 2026-05-08 11:54 | 43.70764 | 10.14337 | 8609 ft | 242 kts | 123° |
| 2026-05-08 11:55 | 43.69767 | 10.16221 | 8483 ft | 244 kts | 126° |
| 2026-05-08 11:55 | 43.68670 | 10.18034 | 8332 ft | 247 kts | 139° |
| 2026-05-08 11:55 | 43.67146 | 10.19041 | 8175 ft | 243 kts | 169° |
| 2026-05-08 11:55 | 43.65493 | 10.18906 | 8056 ft | 238 kts | 197° |
| 2026-05-08 11:56 | 43.64039 | 10.17875 | 7961 ft | 235 kts | 214° |
| 2026-05-08 11:56 | 43.62717 | 10.16530 | 7841 ft | 237 kts | 217° |
| 2026-05-08 11:56 | 43.61413 | 10.15159 | 7740 ft | 231 kts | 216° |
| 2026-05-08 11:56 | 43.60156 | 10.13839 | 7595 ft | 224 kts | 216° |
| 2026-05-08 11:57 | 43.58918 | 10.12547 | 7473 ft | 222 kts | 216° |
| 2026-05-08 11:57 | 43.57687 | 10.11277 | 7354 ft | 220 kts | 216° |
| 2026-05-08 11:57 | 43.56464 | 10.10023 | 7238 ft | 218 kts | 216° |
| 2026-05-08 11:57 | 43.55249 | 10.08779 | 7125 ft | 217 kts | 216° |
| 2026-05-08 11:58 | 43.54040 | 10.07544 | 7021 ft | 216 kts | 216° |
| 2026-05-08 11:58 | 43.52829 | 10.06307 | 6843 ft | 218 kts | 216° |
| 2026-05-08 11:58 | 43.51603 | 10.05056 | 6677 ft | 220 kts | 216° |
| 2026-05-08 11:59 | 43.49111 | 10.02523 | 6290 ft | 222 kts | 213° |
| 2026-05-08 11:59 | 43.47685 | 10.01896 | 6042 ft | 214 kts | 172° |
| 2026-05-08 11:59 | 43.46417 | 10.02712 | 5900 ft | 201 kts | 127° |
| 2026-05-08 11:59 | 43.45748 | 10.04364 | 5769 ft | 200 kts | 110° |
| 2026-05-08 12:00 | 43.45301 | 10.06203 | 5593 ft | 204 kts | 102° |
| 2026-05-08 12:00 | 43.45083 | 10.08137 | 5417 ft | 205 kts | 92° |
| 2026-05-08 12:00 | 43.45095 | 10.10073 | 5299 ft | 198 kts | 83° |
| 2026-05-08 12:00 | 43.45379 | 10.11879 | 5210 ft | 193 kts | 71° |
| 2026-05-08 12:01 | 43.45899 | 10.13523 | 5113 ft | 182 kts | 62° |
| 2026-05-08 12:01 | 43.46552 | 10.14962 | 5097 ft | 164 kts | 55° |
| 2026-05-08 12:01 | 43.47253 | 10.16207 | 4969 ft | 173 kts | 51° |
| 2026-05-08 12:01 | 43.48046 | 10.17487 | 4764 ft | 176 kts | 49° |
| 2026-05-08 12:02 | 43.48887 | 10.18665 | 4513 ft | 167 kts | 46° |
| 2026-05-08 12:02 | 43.49685 | 10.19755 | 4311 ft | 154 kts | 45° |
| 2026-05-08 12:02 | 43.50446 | 10.20698 | 4142 ft | 144 kts | 42° |
| 2026-05-08 12:02 | 43.51225 | 10.21582 | 3928 ft | 145 kts | 40° |
| 2026-05-08 12:03 | 43.52017 | 10.22440 | 3730 ft | 144 kts | 39° |
| 2026-05-08 12:03 | 43.52810 | 10.23279 | 3539 ft | 144 kts | 39° |
| 2026-05-08 12:03 | 43.53608 | 10.24115 | 3350 ft | 145 kts | 39° |
| 2026-05-08 12:03 | 43.54410 | 10.24949 | 3159 ft | 144 kts | 39° |
| 2026-05-08 12:04 | 43.55210 | 10.25781 | 2964 ft | 144 kts | 38° |
| 2026-05-08 12:04 | 43.56013 | 10.26613 | 2766 ft | 143 kts | 39° |
| 2026-05-08 12:04 | 43.56805 | 10.27434 | 2585 ft | 142 kts | 39° |
| 2026-05-08 12:04 | 43.57597 | 10.28255 | 2392 ft | 143 kts | 39° |
| 2026-05-08 12:05 | 43.58385 | 10.29074 | 2196 ft | 142 kts | 39° |
| 2026-05-08 12:05 | 43.59175 | 10.29893 | 2051 ft | 145 kts | 39° |
| 2026-05-08 12:05 | 43.59983 | 10.30737 | 1817 ft | 141 kts | 38° |
| 2026-05-08 12:05 | 43.60766 | 10.31560 | 1673 ft | 143 kts | 40° |
| 2026-05-08 12:06 | 43.61563 | 10.32379 | 1457 ft | 141 kts | 37° |
| 2026-05-08 12:06 | 43.62352 | 10.33186 | 1266 ft | 141 kts | 37° |
| 2026-05-08 12:06 | 43.63156 | 10.34004 | 1041 ft | 147 kts | 35° |
| 2026-05-08 12:06 | 43.63950 | 10.34840 | 868 ft | 145 kts | 36° |
| 2026-05-08 12:07 | 43.64773 | 10.35697 | 677 ft | 152 kts | 37° |
| 2026-05-08 12:07 | 43.65615 | 10.36574 | 504 ft | 152 kts | 34° |
| 2026-05-08 12:07 | 43.66473 | 10.37455 | 262 ft | 153 kts | 36° |
| 2026-05-08 12:07 | 43.67321 | 10.38335 | 75 ft | 153 kts | 37° |
| 2026-05-08 12:08 | 43.68143 | 10.39187 | 6 ft | 135 kts | 37° |
| 2026-05-08 12:08 | 43.68730 | 10.39809 | 6 ft | 54 kts | 35° |
| 2026-05-08 12:08 | 43.68988 | 10.40063 | 8 ft | 24 kts | 37° |
| 2026-05-08 12:08 | 43.69109 | 10.40211 | 8 ft | 6 kts | 43° |
| 2026-05-08 12:09 | 43.69157 | 10.40250 | 8 ft | 11 kts | 24° |
| 2026-05-08 12:09 | 43.69236 | 10.40295 | 9 ft | 10 kts | 20° |
| 2026-05-08 12:09 | 43.69278 | 10.40294 | 9 ft | 14 kts | 340° |
| 2026-05-08 12:09 | 43.69343 | 10.40184 | 9 ft | 15 kts | 304° |
| 2026-05-08 12:10 | 43.69419 | 10.40098 | 11 ft | 14 kts | 352° |
| 2026-05-08 12:10 | 43.69516 | 10.40079 | 10 ft | 14 kts | 352° |
| 2026-05-08 12:10 | 43.69608 | 10.40062 | 10 ft | 13 kts | 354° |
| 2026-05-08 12:10 | 43.69682 | 10.40015 | 10 ft | 12 kts | 285° |
| 2026-05-08 12:11 | 43.69715 | 10.39965 | 10 ft | 8 kts | 9° |
| 2026-05-08 12:11 | 43.69762 | 10.39975 | 10 ft | 4 kts | 9° |
| 2026-05-08 12:11 | 43.69763 | 10.39976 | 10 ft | 0 kts | 9° |